Latest Coastal Weather Observations for Kingfish B

IDV60701

Issued at 12:42 am EDT Tuesday 19 October 2021 (issued every 10 minutes, with the page automatically refreshed every 10 minutes)

About coastal observations | Map of coastal stations | Coastal observations for VIC | Marine services | Other Formats
Station Details ID: 400139 Name: KINGFISH B (PLATFORM) Lat: -38.60 Lon: 148.19 Height: 31.4 m
Data from the previous 72 hours. | See also: Recent months for locations in Victoria
Date/Time
EDT
Wind Sea
Height
m
Swell Vis
km
Cloud Weather Temp
°C
Press
MSL
hPa
Rain since
9am
mm
Dir  Spd
kts
Gust
kts
Height
m
Period
s
Dir
19/12:30am SW 12 15 - - - - - - - 12.5 - -
19/12:20am SW 13 14 - - - - - - - 12.4 - -
19/12:10am SW 13 15 - - - - - - - 12.4 - -
19/12:00am SW 13 15 - - - - - - - 12.3 - -
 
Date/Time
EDT
Wind Sea
Height
m
Swell Vis
km
Cloud Weather Temp
°C
Press
MSL
hPa
Rain since
9am
mm
Dir  Spd
kts
Gust
kts
Height
m
Period
s
Dir
18/11:50pm SW 13 15 - - - - - - - 12.1 - -
18/11:40pm SW 12 14 - - - - - - - 12.1 - -
18/11:30pm SW 12 15 - - - - - - - 12.2 - -
18/11:20pm WSW 9 12 - - - - - - - 12.4 - -
18/11:10pm WSW 7 9 - - - - - - - 12.2 - -
18/11:00pm W 7 9 - - - - - - - 12.0 - -
18/10:50pm W 8 9 - - - - - - - 12.0 - -
18/10:40pm WSW 6 8 - - - - - - - 11.9 - -
18/10:30pm WSW 7 8 - - - - - - - 11.9 - -
18/10:20pm WSW 7 8 - - - - - - - 12.1 - -
18/10:10pm SW 7 9 - - - - - - - 12.1 - -
18/10:00pm SW 9 12 - - - - - - - 12.2 - -
18/09:50pm SSW 12 14 - - - - - - - 12.5 - -
18/09:40pm SSW 13 14 - - - - - - - 12.4 - -
18/09:30pm SSW 13 15 - - - - - - - 12.3 - -
18/09:20pm SSW 15 18 - - - - - - - 12.5 - -
18/09:10pm SW 17 19 - - - - - - - 13.1 - -
18/09:00pm SSW 17 20 - - - - - - - 13.1 - -
18/08:30pm SSW 13 14 - - - - - - - 13.2 - -
18/08:20pm SSW 14 16 - - - - - - - 13.2 - -
18/08:10pm SSW 17 19 - - - - - - - 13.3 - -
18/08:00pm SSW 15 18 - - - - - - - 13.3 - -
18/07:50pm SSW 16 18 - - - - - - - 13.4 - -
18/07:40pm SSW 16 18 - - - - - - - 13.7 - -
18/07:30pm SSW 13 15 - - - - - - - 13.7 - -
18/07:20pm SSW 13 15 - - - - - - - 13.7 - -
18/07:10pm SSW 15 17 - - - - - - - 13.9 - -
18/07:00pm SSW 16 18 - - - - - - - 14.3 - -
18/06:50pm SSW 15 17 - - - - - - - 14.4 - -
18/06:40pm SSW 14 17 - - - - - - - 14.8 - -
18/06:30pm SW 13 14 - - - - - - - 15.0 - -
18/06:20pm SSW 13 15 - - - - - - - 15.2 - -
18/06:10pm SW 14 17 - - - - - - - 15.4 - -
18/06:00pm SW 14 17 - - - - - - - 15.5 - -
18/05:50pm SW 11 13 - - - - - - - 15.6 - -
18/05:40pm SW 10 12 - - - - - - - 15.5 - -
18/05:30pm SW 10 12 - - - - - - - 15.8 - -
18/05:20pm SW 11 13 - - - - - - - 15.9 - -
18/05:10pm SW 13 15 - - - - - - - 15.9 - -
18/05:00pm SW 11 14 - - - - - - - 16.1 - -
18/04:50pm SW 8 10 - - - - - - - 16.2 - -
18/04:40pm SW 7 8 - - - - - - - 16.3 - -
18/04:30pm SW 7 8 - - - - - - - 16.3 - -
18/04:20pm SW 8 9 - - - - - - - 16.1 - -
18/04:10pm SW 7 8 - - - - - - - 16.0 - -
18/04:00pm SW 6 8 - - - - - - - 16.0 - -
18/03:50pm SW 7 7 - - - - - - - 16.1 - -
18/03:40pm WSW 6 7 - - - - - - - 16.2 - -
18/03:30pm WSW 6 7 - - - - - - - 16.3 - -
18/03:20pm SW 7 8 - - - - - - - 16.4 - -
18/03:10pm SW 7 8 - - - - - - - 16.5 - -
18/03:00pm SW 7 8 - - - - - - - 16.6 - -
18/02:50pm WSW 8 9 - - - - - - - 16.8 - -
18/02:40pm SW 8 9 - - - - - - - 16.9 - -
18/02:30pm WSW 8 10 - - - - - - - 16.9 - -
18/02:20pm WSW 8 11 - - - - - - - 16.8 - -
18/02:10pm WSW 6 9 - - - - - - - 16.6 - -
18/02:00pm W 5 6 - - - - - - - 16.4 - -
18/01:50pm W 5 6 - - - - - - - 16.4 - -
18/01:40pm W 6 6 - - - - - - - 16.3 - -
18/01:30pm W 6 7 - - - - - - - 16.4 - -
18/01:20pm WNW 6 7 - - - - - - - 16.1 - -
18/01:10pm WNW 6 7 - - - - - - - 16.0 - -
18/01:00pm WNW 6 7 - - - - - - - 16.2 - -
18/12:50pm WNW 7 8 - - - - - - - 16.4 - -
18/12:40pm WNW 7 8 - - - - - - - 16.4 - -
18/12:30pm NW 6 7 - - - - - - - 16.3 - -
18/12:20pm WNW 7 8 - - - - - - - 16.3 - -
18/12:10pm WNW 7 8 - - - - - - - 16.7 - -
18/12:00pm NW 7 8 - - - - - - - 16.6 - -
18/11:50am NW 6 8 - - - - - - - 16.7 - -
18/11:40am NW 8 9 - - - - - - - 16.8 - -
18/11:30am NW 8 8 - - - - - - - 16.7 - -
18/11:20am NNW 9 10 - - - - - - - 16.4 - -
18/11:10am NNW 9 10 - - - - - - - 16.5 - -
18/11:00am NNW 9 12 - - - - - - - 16.4 - -
18/10:50am NNW 10 12 - - - - - - - 16.2 - -
18/10:40am NNW 10 12 - - - - - - - 16.0 - -
18/10:30am NNW 11 12 - - - - - - - 15.9 - -
18/10:20am NNW 10 13 - - - - - - - 15.6 - -
18/10:10am NNW 11 13 - - - - - - - 15.2 - -
18/10:00am NNW 10 14 - - - - - - - 15.3 - -
18/09:50am NNW 13 15 - - - - - - - 15.4 - -
18/09:40am NNW 12 16 - - - - - - - 15.3 - -
18/09:30am N 12 15 - - - - - - - 15.2 - -
18/09:20am N 13 15 - - - - - - - 14.9 - -
18/09:10am N 13 16 - - - - - - - 15.0 - -
18/09:00am N 14 16 - - - - - - - 14.7 - -
18/08:50am N 14 16 - - - - - - - 14.6 - -
18/08:40am N 14 16 - - - - - - - 15.1 - -
18/08:30am N 14 16 - - - - - - - 15.3 - -
18/08:20am N 13 15 - - - - - - - 14.8 - -
18/08:10am N 12 14 - - - - - - - 14.2 - -
18/08:00am N 13 14 - - - - - - - 13.6 - -
18/07:50am N 14 15 - - - - - - - 13.4 - -
18/07:40am N 14 16 - - - - - - - 13.3 - -
18/07:30am NNE 14 16 - - - - - - - 13.3 - -
18/07:20am NNE 13 15 - - - - - - - 13.5 - -
18/07:10am NNE 15 17 - - - - - - - 13.8 - -
18/07:00am NNE 15 17 - - - - - - - 13.4 - -
18/06:50am NNE 15 17 - - - - - - - 13.1 - -
18/06:40am NNE 14 16 - - - - - - - 13.1 - -
18/06:30am NNE 13 16 - - - - - - - 13.1 - -
18/06:20am NNE 14 16 - - - - - - - 13.1 - -
18/06:10am NNE 14 16 - - - - - - - 13.0 - -
18/06:00am NNE 13 15 - - - - - - - 13.1 - -
18/05:50am NNE 13 14 - - - - - - - 13.1 - -
18/05:40am NNE 13 14 - - - - - - - 13.0 - -
18/05:30am NNE 13 15 - - - - - - - 12.9 - -
18/05:20am NNE 12 15 - - - - - - - 12.8 - -
18/05:10am NNE 12 13 - - - - - - - 12.8 - -
18/05:00am NNE 11 13 - - - - - - - 12.8 - -
18/04:50am NNE 11 13 - - - - - - - 12.9 - -
18/04:40am NNE 11 12 - - - - - - - 12.9 - -
18/04:30am N 11 13 - - - - - - - 12.8 - -
18/04:20am N 11 12 - - - - - - - 12.7 - -
18/04:10am N 11 13 - - - - - - - 12.8 - -
18/04:00am N 11 12 - - - - - - - 12.8 - -
18/03:50am N 11 13 - - - - - - - 12.8 - -
18/03:40am N 12 13 - - - - - - - 12.9 - -
18/03:30am N 11 12 - - - - - - - 12.9 - -
18/03:20am - 12 13 - - - - - - - 12.9 - -
18/03:10am N 11 13 - - - - - - - 12.9 - -
18/03:00am N 9 12 - - - - - - - 13.0 - -
18/02:50am N 9 12 - - - - - - - 13.1 - -
18/02:40am N 11 13 - - - - - - - 13.2 - -
18/02:30am N 9 12 - - - - - - - 13.3 - -
18/02:20am N 9 12 - - - - - - - 13.3 - -
18/02:10am NNW 8 10 - - - - - - - 13.5 - -
18/02:00am NNW 9 10 - - - - - - - 13.5 - -
18/01:50am NNW 9 10 - - - - - - - 13.5 - -
18/01:40am NNW 8 10 - - - - - - - 13.5 - -
18/01:30am NNW 9 10 - - - - - - - 13.5 - -
18/12:50am NNW 8 9 - - - - - - - 13.6 - -
18/12:40am NNW 8 9 - - - - - - - 13.6 - -
18/12:30am NNW 7 9 - - - - - - - 13.6 - -
18/12:20am NNW 7 9 - - - - - - - 13.5 - -
18/12:10am NNW 7 8 - - - - - - - 13.5 - -
18/12:00am NNW 7 8 - - - - - - - 13.4 - -
 
Date/Time
EDT
Wind Sea
Height
m
Swell Vis
km
Cloud Weather Temp
°C
Press
MSL
hPa
Rain since
9am
mm
Dir  Spd
kts
Gust
kts
Height
m
Period
s
Dir
17/11:50pm NNW 7 9 - - - - - - - 13.4 - -
17/11:40pm NNW 6 8 - - - - - - - 13.4 - -
17/11:30pm NNW 5 8 - - - - - - - 13.3 - -
17/11:20pm NNW 6 9 - - - - - - - 13.2 - -
17/11:10pm NNW 6 8 - - - - - - - 13.1 - -
17/11:00pm NNW 6 7 - - - - - - - 13.1 - -
17/10:50pm NNW 5 7 - - - - - - - 13.1 - -
17/10:40pm NNW 5 7 - - - - - - - 13.0 - -
17/10:30pm NW 5 6 - - - - - - - 12.9 - -
17/10:20pm NW 4 5 - - - - - - - 12.8 - -
17/10:10pm NW 3 4 - - - - - - - 12.8 - -
17/10:00pm NW 2 3 - - - - - - - 12.7 - -
17/09:50pm NW 1 3 - - - - - - - 12.6 - -
17/09:40pm WNW 1 2 - - - - - - - 12.5 - -
17/09:30pm WNW 1 1 - - - - - - - 12.4 - -
17/09:20pm CALM 0 1 - - - - - - - 12.4 - -
17/09:10pm WSW 1 1 - - - - - - - 12.6 - -
17/09:00pm CALM 0 1 - - - - - - - 12.6 - -
17/08:50pm SW 1 3 - - - - - - - 12.6 - -
17/08:40pm SSW 2 3 - - - - - - - 12.6 - -
17/08:30pm SSW 3 4 - - - - - - - 12.8 - -
17/08:20pm SSW 5 7 - - - - - - - 12.8 - -
17/08:10pm SSW 4 6 - - - - - - - 12.7 - -
17/08:00pm SSW 5 6 - - - - - - - 12.9 - -
17/07:50pm SSW 6 7 - - - - - - - 13.0 - -
17/07:40pm SSW 6 8 - - - - - - - 13.0 - -
17/07:30pm SSW 6 7 - - - - - - - 12.9 - -
17/07:20pm SSW 6 7 - - - - - - - 12.9 - -
17/07:10pm SSW 6 7 - - - - - - - 13.1 - -
17/07:00pm SSW 6 7 - - - - - - - 13.3 - -
17/06:50pm SSW 5 7 - - - - - - - 13.4 - -
17/06:40pm SSW 6 8 - - - - - - - 13.4 - -
17/06:30pm SSW 7 8 - - - - - - - 13.4 - -
17/06:20pm SSW 7 8 - - - - - - - 13.5 - -
17/06:10pm SSW 6 7 - - - - - - - 13.4 - -
17/06:00pm SSW 6 7 - - - - - - - 13.2 - -
17/05:50pm SSW 6 7 - - - - - - - 13.2 - -
17/05:40pm SSW 6 7 - - - - - - - 13.1 - -
17/05:30pm SSW 6 7 - - - - - - - 13.2 - -
17/05:20pm SSW 7 8 - - - - - - - 13.4 - -
17/05:10pm SSW 6 7 - - - - - - - 13.6 - -
17/05:00pm SSW 5 6 - - - - - - - 13.7 - -
17/04:50pm SSW 5 6 - - - - - - - 13.8 - -
17/04:40pm SW 4 5 - - - - - - - 13.8 - -
17/04:30pm SW 4 5 - - - - - - - 13.7 - -
17/04:20pm SW 5 6 - - - - - - - 13.7 - -
17/04:10pm SW 5 6 - - - - - - - 13.7 - -
17/04:00pm SW 5 6 - - - - - - - 13.7 - -
17/03:50pm SW 6 7 - - - - - - - 13.7 - -
17/03:40pm SW 5 6 - - - - - - - 13.7 - -
17/03:30pm SW 6 7 - - - - - - - 13.7 - -
17/03:20pm SW 6 8 - - - - - - - 13.8 - -
17/03:10pm SW 6 8 - - - - - - - 13.8 - -
17/03:00pm SW 7 8 - - - - - - - 13.8 - -
17/02:50pm SW 7 8 - - - - - - - 13.8 - -
17/02:40pm SW 7 9 - - - - - - - 13.8 - -
17/02:30pm SW 8 10 - - - - - - - 13.9 - -
17/02:20pm SW 8 9 - - - - - - - 14.1 - -
17/02:10pm SW 9 11 - - - - - - - 14.2 - -
17/02:00pm SW 10 12 - - - - - - - 14.4 - -
17/01:50pm SW 10 12 - - - - - - - 14.6 - -
17/01:40pm SW 12 14 - - - - - - - 14.8 - -
17/01:30pm SW 12 13 - - - - - - - 15.0 - -
17/01:20pm SW 13 15 - - - - - - - 15.2 - -
17/01:10pm SW 14 16 - - - - - - - 15.2 - -
17/01:00pm SW 13 17 - - - - - - - 15.2 - -
17/12:50pm SW 13 14 - - - - - - - 15.3 - -
17/12:40pm WSW 12 14 - - - - - - - 15.1 - -
17/12:30pm WSW 12 14 - - - - - - - 15.4 - -
17/12:20pm WSW 13 15 - - - - - - - 15.3 - -
17/12:10pm WSW 14 16 - - - - - - - 15.1 - -
17/12:00pm WSW 14 17 - - - - - - - 14.7 - -
17/11:50am WSW 15 17 - - - - - - - 14.4 - -
17/11:40am WSW 14 17 - - - - - - - 14.3 - -
17/11:30am WSW 15 17 - - - - - - - 14.1 - -
17/11:20am WSW 15 17 - - - - - - - 14.1 - -
17/11:10am WSW 14 16 - - - - - - - 14.4 - -
17/11:00am SW 14 20 - - - - - - - 14.5 - -
17/10:50am WSW 17 20 - - - - - - - 14.4 - -
17/10:40am WSW 17 20 - - - - - - - 14.5 - -
17/10:30am WSW 16 19 - - - - - - - 14.7 - -
17/10:20am SW 16 19 - - - - - - - 14.6 - -
17/10:10am SW 17 20 - - - - - - - 14.3 - -
17/10:00am WSW 14 21 - - - - - - - 14.2 - -
17/09:50am SW 15 20 - - - - - - - 14.1 - -
17/09:40am SW 16 19 - - - - - - - 14.4 - -
17/09:30am WSW 16 19 - - - - - - - 14.7 - -
17/09:20am SW 16 18 - - - - - - - 14.7 - -
17/09:10am SW 16 19 - - - - - - - 14.8 - -
17/09:00am SW 16 18 - - - - - - - 14.4 - -
17/08:50am SW 16 19 - - - - - - - 14.2 - -
17/08:40am WSW 18 21 - - - - - - - 14.3 - -
17/08:30am SW 19 22 - - - - - - - 13.9 - -
17/08:20am SW 19 22 - - - - - - - 12.9 - -
17/08:10am SW 18 22 - - - - - - - 12.9 - -
17/08:00am SW 17 20 - - - - - - - 12.9 - -
17/07:50am SW 18 21 - - - - - - - 13.0 - -
17/07:40am SW 17 21 - - - - - - - 13.0 - -
17/07:30am SW 16 20 - - - - - - - 12.8 - -
17/07:20am SW 19 23 - - - - - - - 12.5 - -
17/07:10am SW 19 22 - - - - - - - 12.3 - -
17/07:00am SW 19 22 - - - - - - - 12.4 - -
17/06:50am SW 18 21 - - - - - - - 12.4 - -
17/06:40am WSW 20 24 - - - - - - - 12.4 - -
17/06:30am SW 20 25 - - - - - - - 12.5 - -
17/06:20am SW 20 23 - - - - - - - 12.4 - -
17/06:10am SW 22 26 - - - - - - - 12.4 - -
17/06:00am WSW 22 26 - - - - - - - 12.5 - -
17/05:50am WSW 22 26 - - - - - - - 12.7 - -
17/05:40am SW 20 24 - - - - - - - 12.8 - -
17/05:30am SW 21 25 - - - - - - - 12.7 - -
17/05:20am SW 23 27 - - - - - - - 12.3 - -
17/05:10am SW 24 28 - - - - - - - 12.3 - -
17/05:00am SW 24 28 - - - - - - - 12.2 - -
17/04:50am SW 23 29 - - - - - - - 12.2 - -
17/04:40am SW 24 27 - - - - - - - 12.3 - -
17/04:30am SW 22 27 - - - - - - - 12.3 - -
17/04:20am SW 24 27 - - - - - - - 12.3 - -
17/04:10am SW 22 27 - - - - - - - 12.3 - -
17/04:00am SW 24 28 - - - - - - - 12.3 - -
17/03:50am SW 25 28 - - - - - - - 12.3 - -
17/03:40am SW 26 31 - - - - - - - 12.2 - -
17/03:30am SW 27 30 - - - - - - - 12.3 - -
17/03:20am SW 26 31 - - - - - - - 12.3 - -
17/03:10am SW 27 32 - - - - - - - 12.4 - -
17/03:00am SW 27 31 - - - - - - - 12.3 - -
17/02:50am SW 27 31 - - - - - - - 12.4 - -
17/02:40am SW 25 30 - - - - - - - 12.4 - -
17/02:30am SW 27 31 - - - - - - - 12.4 - -
17/02:20am SW 26 30 - - - - - - - 12.4 - -
17/02:10am SW 27 31 - - - - - - - 12.4 - -
17/02:00am SW 27 33 - - - - - - - 12.4 - -
17/01:50am SW 27 32 - - - - - - - 12.4 - -
17/01:40am SW 27 32 - - - - - - - 12.4 - -
17/01:30am SW 27 32 - - - - - - - 12.5 - -
17/12:50am SW 28 33 - - - - - - - 12.4 - -
17/12:40am SW 28 33 - - - - - - - 12.4 - -
17/12:30am SW 29 34 - - - - - - - 12.4 - -
17/12:20am SW 29 33 - - - - - - - 12.5 - -
17/12:10am SW 28 35 - - - - - - - 12.5 - -
17/12:00am SW 28 34 - - - - - - - 12.6 - -
 
Date/Time
EDT
Wind Sea
Height
m
Swell Vis
km
Cloud Weather Temp
°C
Press
MSL
hPa
Rain since
9am
mm
Dir  Spd
kts
Gust
kts
Height
m
Period
s
Dir
16/11:50pm SW 29 33 - - - - - - - 12.5 - -
16/11:40pm SW 31 35 - - - - - - - 12.5 - -
16/11:30pm SW 31 36 - - - - - - - 12.6 - -
16/11:20pm SW 32 36 - - - - - - - 12.7 - -
16/11:10pm SW 30 36 - - - - - - - 12.7 - -
16/11:00pm SW 29 35 - - - - - - - 12.7 - -
16/10:50pm SW 29 34 - - - - - - - 12.7 - -
16/10:40pm SW 29 36 - - - - - - - 12.7 - -
16/10:30pm SW 30 34 - - - - - - - 12.7 - -
16/10:20pm SW 30 34 - - - - - - - 12.7 - -
16/10:10pm SW 32 38 - - - - - - - 12.7 - -
16/10:00pm SW 31 35 - - - - - - - 12.7 - -
16/09:50pm SW 33 40 - - - - - - - 12.7 - -
16/09:40pm SW 33 39 - - - - - - - 12.7 - -
16/09:30pm SW 32 38 - - - - - - - 12.7 - -
16/09:20pm SW 33 39 - - - - - - - 12.8 - -
16/09:10pm SW 32 39 - - - - - - - 12.8 - -
16/09:00pm SW 32 40 - - - - - - - 12.8 - -
16/08:50pm SW 31 40 - - - - - - - 12.8 - -
16/08:40pm WSW 33 40 - - - - - - - 12.8 - -
16/08:30pm SW 30 37 - - - - - - - 12.8 - -
16/08:20pm SW 35 41 - - - - - - - 12.7 - -
16/08:10pm SW 33 40 - - - - - - - 12.8 - -
16/08:00pm SW 33 42 - - - - - - - 12.8 - -
16/07:50pm SW 33 39 - - - - - - - 12.8 - -
16/07:40pm SW 34 42 - - - - - - - 12.8 - -
16/07:30pm SW 34 41 - - - - - - - 12.9 - -
16/07:20pm SW 35 41 - - - - - - - 13.0 - -
16/07:10pm SW 34 41 - - - - - - - 13.0 - -
16/07:00pm SW 34 40 - - - - - - - 13.1 - -
16/06:50pm SW 32 40 - - - - - - - 13.1 - -
16/06:40pm SW 31 38 - - - - - - - 13.2 - -
16/06:30pm SW 32 39 - - - - - - - 13.3 - -
16/06:20pm SW 33 39 - - - - - - - 13.3 - -
16/06:10pm SW 32 39 - - - - - - - 13.3 - -
16/06:00pm SW 34 41 - - - - - - - 13.3 - -
16/05:50pm SW 34 41 - - - - - - - 13.5 - -
16/05:40pm SW 34 40 - - - - - - - 13.5 - -
16/05:30pm SW 33 39 - - - - - - - 13.5 - -
16/05:20pm SW 32 39 - - - - - - - 13.6 - -
16/05:10pm SW 34 40 - - - - - - - 13.8 - -
16/05:00pm SW 34 40 - - - - - - - 13.7 - -
16/04:50pm SW 33 39 - - - - - - - 13.6 - -
16/04:40pm SW 36 41 - - - - - - - 13.6 - -
16/04:30pm SW 32 42 - - - - - - - 13.8 - -
16/04:20pm SW 33 39 - - - - - - - 13.9 - -
16/04:10pm SW 31 39 - - - - - - - 13.9 - -
16/04:00pm SW 32 40 - - - - - - - 14.0 - -
16/03:50pm SW 32 39 - - - - - - - 14.0 - -
16/03:40pm SW 32 40 - - - - - - - 13.9 - -
16/03:30pm SW 32 40 - - - - - - - 14.1 - -
16/03:20pm SW 33 38 - - - - - - - 14.1 - -
16/03:10pm SW 33 40 - - - - - - - 14.1 - -
16/03:00pm SW 33 39 - - - - - - - 14.1 - -
16/02:50pm SW 33 39 - - - - - - - 14.1 - -
16/02:40pm SW 35 41 - - - - - - - 14.2 - -
16/02:30pm SW 33 41 - - - - - - - 14.2 - -
16/02:20pm SW 32 37 - - - - - - - 14.2 - -
16/02:10pm SW 33 40 - - - - - - - 14.3 - -
16/02:00pm SW 32 38 - - - - - - - 14.4 - -
16/01:50pm SW 33 38 - - - - - - - 14.4 - -
16/01:40pm SW 31 37 - - - - - - - 14.6 - -
16/01:30pm SW 31 37 - - - - - - - 14.5 - -
16/01:20pm SW 30 39 - - - - - - - 14.6 - -
16/01:10pm SW 31 37 - - - - - - - 14.5 - -
16/01:00pm SW 29 36 - - - - - - - 14.5 - -
16/12:50pm SW 29 36 - - - - - - - 14.5 - -
16/12:40pm SW 30 36 - - - - - - - 14.4 - -
16/12:30pm SW 30 36 - - - - - - - 14.4 - -
16/12:20pm SW 30 36 - - - - - - - 14.2 - -
16/12:10pm SW 30 35 - - - - - - - 14.2 - -
16/12:00pm SW 32 37 - - - - - - - 14.0 - -
16/11:50am SW 31 36 - - - - - - - 13.8 - -
16/11:40am SW 30 35 - - - - - - - 13.6 - -
16/11:30am SW 30 35 - - - - - - - 13.2 - -
16/11:20am SW 30 35 - - - - - - - 13.0 - -
16/11:10am SW 31 37 - - - - - - - 12.8 - -
16/11:00am SW 31 37 - - - - - - - 12.9 - -
16/10:50am SW 30 35 - - - - - - - 12.9 - -
16/10:40am SW 29 34 - - - - - - - 12.8 - -
16/10:30am SW 30 36 - - - - - - - 12.7 - -
16/10:20am SW 30 36 - - - - - - - 12.6 - -
16/10:10am SW 31 36 - - - - - - - 12.7 - -
16/10:00am SW 34 41 - - - - - - - 12.6 - -
16/09:50am SSW 35 42 - - - - - - - 12.6 - -
16/09:40am SSW 33 42 - - - - - - - 12.6 - -
16/09:30am SSW 28 38 - - - - - - - 12.5 - -
16/09:20am SSW 29 35 - - - - - - - 12.6 - -
16/09:10am SSW 27 33 - - - - - - - 12.5 - -
16/09:00am SSW 26 33 - - - - - - - 12.8 - -
16/08:50am SSW 24 31 - - - - - - - 13.0 - -
16/08:40am SW 25 32 - - - - - - - 13.3 - -
16/08:30am SW 25 30 - - - - - - - 13.3 - -
16/08:20am SW 27 31 - - - - - - - 13.1 - -
16/08:10am SW 27 33 - - - - - - - 13.0 - -
16/08:00am SW 28 33 - - - - - - - 13.1 - -
16/07:50am SW 24 29 - - - - - - - 13.0 - -
16/07:40am SW 27 32 - - - - - - - 13.0 - -
16/07:30am SW 28 36 - - - - - - - 12.9 - -
16/07:20am SW 25 30 - - - - - - - 12.8 - -
16/07:10am SW 26 31 - - - - - - - 12.8 - -
16/07:00am SW 25 32 - - - - - - - 12.7 - -
16/06:50am SW 27 35 - - - - - - - 12.6 - -
16/06:40am SW 29 34 - - - - - - - 12.7 - -
16/06:30am SW 29 35 - - - - - - - 12.7 - -
16/06:20am SW 29 35 - - - - - - - 12.8 - -
16/06:10am SW 29 37 - - - - - - - 12.5 - -
16/06:00am SW 28 36 - - - - - - - 12.7 - -
16/05:50am SW 23 28 - - - - - - - 12.8 - -
16/05:40am SW 24 29 - - - - - - - 12.9 - -
16/05:30am SW 25 29 - - - - - - - 13.0 - -
16/05:20am SW 25 29 - - - - - - - 12.9 - -
16/05:10am SW 24 28 - - - - - - - 12.7 - -
16/05:00am SW 25 28 - - - - - - - 12.6 - -
16/04:50am SW 24 31 - - - - - - - 12.4 - -
16/04:40am SW 25 31 - - - - - - - 12.4 - -
16/04:30am SW 27 33 - - - - - - - 12.3 - -
16/04:20am SW 29 34 - - - - - - - 12.4 - -
16/04:10am SW 29 35 - - - - - - - 12.4 - -
16/04:00am SW 27 33 - - - - - - - 12.5 - -
16/03:50am SW 27 33 - - - - - - - 12.4 - -
16/03:40am SW 26 30 - - - - - - - 12.4 - -
16/03:30am SW 25 30 - - - - - - - 12.4 - -
16/03:20am SW 25 29 - - - - - - - 12.5 - -
16/03:10am SW 24 28 - - - - - - - 12.6 - -
16/03:00am SW 23 29 - - - - - - - 12.7 - -
16/02:50am WSW 23 28 - - - - - - - 12.6 - -
16/02:40am WSW 24 28 - - - - - - - 12.5 - -
16/02:30am SW 23 26 - - - - - - - 12.4 - -
16/02:20am SW 25 30 - - - - - - - 12.4 - -
16/02:10am SW 23 28 - - - - - - - 12.4 - -
16/02:00am WSW 22 28 - - - - - - - 12.3 - -
16/01:50am W 22 29 - - - - - - - 12.0 - -
16/01:40am WNW 24 29 - - - - - - - 11.8 - -
16/01:30am WNW 26 30 - - - - - - - 11.7 - -
16/12:50am WNW 29 34 - - - - - - - 11.7 - -

Other formats

Comma delimited format used in spreadsheet applications
http://www.bom.gov.au/fwo/IDV60701/IDV60701.55039.axf

JavaScript Object Notation format (JSON) in row-major order
http://www.bom.gov.au/fwo/IDV60701/IDV60701.55039.json

Data quality

Most of these data are generated automatically and are frequently updated. Quality checks on data are not normally performed. It is possible for incorrect values to appear. Refer to information at About Latest Weather Observations and please check the disclaimer before using these data.